sensor_id;sensor_type;location;lat;lon;timestamp;temperature;humidity
10030;DHT22;5055;52.054;8.524;2022-12-07T00:01:46;4.30;97.00
10030;DHT22;5055;52.054;8.524;2022-12-07T00:04:17;4.30;97.00
10030;DHT22;5055;52.054;8.524;2022-12-07T00:06:50;4.30;97.00
10030;DHT22;5055;52.054;8.524;2022-12-07T00:09:19;4.30;97.00
10030;DHT22;5055;52.054;8.524;2022-12-07T00:11:50;4.40;97.00
10030;DHT22;5055;52.054;8.524;2022-12-07T00:14:20;4.40;97.00
10030;DHT22;5055;52.054;8.524;2022-12-07T00:16:56;4.40;97.00
10030;DHT22;5055;52.054;8.524;2022-12-07T00:19:25;4.40;97.00
10030;DHT22;5055;52.054;8.524;2022-12-07T00:21:53;4.40;97.00
10030;DHT22;5055;52.054;8.524;2022-12-07T00:24:22;4.40;97.00
10030;DHT22;5055;52.054;8.524;2022-12-07T00:26:51;4.40;97.00
10030;DHT22;5055;52.054;8.524;2022-12-07T00:29:21;4.40;97.00
10030;DHT22;5055;52.054;8.524;2022-12-07T00:31:50;4.50;97.00
10030;DHT22;5055;52.054;8.524;2022-12-07T00:34:20;4.50;97.00
10030;DHT22;5055;52.054;8.524;2022-12-07T00:36:52;4.50;97.00
10030;DHT22;5055;52.054;8.524;2022-12-07T00:39:21;4.40;97.00
10030;DHT22;5055;52.054;8.524;2022-12-07T00:41:51;4.50;97.00
10030;DHT22;5055;52.054;8.524;2022-12-07T00:44:19;4.40;97.00
10030;DHT22;5055;52.054;8.524;2022-12-07T00:46:47;4.40;97.00
10030;DHT22;5055;52.054;8.524;2022-12-07T00:49:16;4.40;97.00
10030;DHT22;5055;52.054;8.524;2022-12-07T00:51:44;4.40;97.00
10030;DHT22;5055;52.054;8.524;2022-12-07T00:54:13;4.40;97.00
10030;DHT22;5055;52.054;8.524;2022-12-07T00:56:41;4.40;97.00
10030;DHT22;5055;52.054;8.524;2022-12-07T00:59:12;4.40;97.00
10030;DHT22;5055;52.054;8.524;2022-12-07T01:01:42;4.40;97.00
10030;DHT22;5055;52.054;8.524;2022-12-07T01:04:11;4.40;97.00
10030;DHT22;5055;52.054;8.524;2022-12-07T01:06:40;4.40;97.00
10030;DHT22;5055;52.054;8.524;2022-12-07T01:09:08;4.40;97.00
10030;DHT22;5055;52.054;8.524;2022-12-07T01:11:37;4.40;97.00
10030;DHT22;5055;52.054;8.524;2022-12-07T01:14:05;4.50;97.00
10030;DHT22;5055;52.054;8.524;2022-12-07T01:16:35;4.50;97.00
10030;DHT22;5055;52.054;8.524;2022-12-07T01:19:04;4.50;97.00
10030;DHT22;5055;52.054;8.524;2022-12-07T01:21:34;4.50;97.00
10030;DHT22;5055;52.054;8.524;2022-12-07T01:24:06;4.50;97.00
10030;DHT22;5055;52.054;8.524;2022-12-07T01:26:35;4.50;97.00
10030;DHT22;5055;52.054;8.524;2022-12-07T01:29:03;4.50;97.00
10030;DHT22;5055;52.054;8.524;2022-12-07T01:31:32;4.50;97.00
10030;DHT22;5055;52.054;8.524;2022-12-07T01:34:02;4.50;97.00
10030;DHT22;5055;52.054;8.524;2022-12-07T01:36:32;4.50;97.00
10030;DHT22;5055;52.054;8.524;2022-12-07T01:39:06;4.40;97.00
10030;DHT22;5055;52.054;8.524;2022-12-07T01:41:37;4.40;97.00
10030;DHT22;5055;52.054;8.524;2022-12-07T01:44:13;4.40;97.00
10030;DHT22;5055;52.054;8.524;2022-12-07T01:46:44;4.30;97.00
10030;DHT22;5055;52.054;8.524;2022-12-07T01:49:25;4.30;97.00
10030;DHT22;5055;52.054;8.524;2022-12-07T01:52:01;4.30;97.00
10030;DHT22;5055;52.054;8.524;2022-12-07T01:54:32;4.20;97.00
10030;DHT22;5055;52.054;8.524;2022-12-07T01:57:03;4.20;97.00
10030;DHT22;5055;52.054;8.524;2022-12-07T01:59:33;4.30;97.00
10030;DHT22;5055;52.054;8.524;2022-12-07T02:02:04;4.30;97.00
10030;DHT22;5055;52.054;8.524;2022-12-07T02:04:37;4.20;97.00
10030;DHT22;5055;52.054;8.524;2022-12-07T02:07:05;4.20;97.00
10030;DHT22;5055;52.054;8.524;2022-12-07T02:09:35;4.20;97.00
10030;DHT22;5055;52.054;8.524;2022-12-07T02:12:04;4.20;97.00
10030;DHT22;5055;52.054;8.524;2022-12-07T02:14:33;4.20;97.00
10030;DHT22;5055;52.054;8.524;2022-12-07T02:17:08;4.10;97.00
10030;DHT22;5055;52.054;8.524;2022-12-07T02:20:00;4.10;97.00
10030;DHT22;5055;52.054;8.524;2022-12-07T02:22:57;4.10;97.00
10030;DHT22;5055;52.054;8.524;2022-12-07T02:25:39;4.00;97.00
10030;DHT22;5055;52.054;8.524;2022-12-07T02:28:19;4.00;97.00
10030;DHT22;5055;52.054;8.524;2022-12-07T02:30:52;3.90;97.00
10030;DHT22;5055;52.054;8.524;2022-12-07T02:33:26;3.90;97.00
10030;DHT22;5055;52.054;8.524;2022-12-07T02:36:00;3.80;97.00
10030;DHT22;5055;52.054;8.524;2022-12-07T02:38:35;3.90;97.00
10030;DHT22;5055;52.054;8.524;2022-12-07T02:41:09;3.90;97.00
10030;DHT22;5055;52.054;8.524;2022-12-07T02:43:40;3.90;97.00
10030;DHT22;5055;52.054;8.524;2022-12-07T02:46:14;3.90;97.00
10030;DHT22;5055;52.054;8.524;2022-12-07T02:48:45;3.80;97.00
10030;DHT22;5055;52.054;8.524;2022-12-07T02:51:14;3.80;97.00
10030;DHT22;5055;52.054;8.524;2022-12-07T02:53:45;3.70;97.00
10030;DHT22;5055;52.054;8.524;2022-12-07T02:56:20;3.70;97.00
10030;DHT22;5055;52.054;8.524;2022-12-07T02:59:01;3.70;97.00
10030;DHT22;5055;52.054;8.524;2022-12-07T03:01:40;3.70;97.00
10030;DHT22;5055;52.054;8.524;2022-12-07T03:04:20;3.70;97.00
10030;DHT22;5055;52.054;8.524;2022-12-07T03:06:56;3.60;97.00
10030;DHT22;5055;52.054;8.524;2022-12-07T03:09:33;3.60;97.00
10030;DHT22;5055;52.054;8.524;2022-12-07T03:12:08;3.60;97.00
10030;DHT22;5055;52.054;8.524;2022-12-07T03:14:44;3.50;97.00
10030;DHT22;5055;52.054;8.524;2022-12-07T03:17:19;3.50;97.00
10030;DHT22;5055;52.054;8.524;2022-12-07T03:19:52;3.50;97.00
10030;DHT22;5055;52.054;8.524;2022-12-07T03:22:23;3.60;97.00
10030;DHT22;5055;52.054;8.524;2022-12-07T03:24:55;3.50;97.00
10030;DHT22;5055;52.054;8.524;2022-12-07T03:27:28;3.50;97.00
10030;DHT22;5055;52.054;8.524;2022-12-07T03:30:02;3.50;97.00
10030;DHT22;5055;52.054;8.524;2022-12-07T03:32:37;3.60;97.00
10030;DHT22;5055;52.054;8.524;2022-12-07T03:35:11;3.60;97.00
10030;DHT22;5055;52.054;8.524;2022-12-07T03:37:47;3.50;97.00
10030;DHT22;5055;52.054;8.524;2022-12-07T03:40:20;3.50;97.00
10030;DHT22;5055;52.054;8.524;2022-12-07T03:42:50;3.60;97.00
10030;DHT22;5055;52.054;8.524;2022-12-07T03:45:23;3.50;97.00
10030;DHT22;5055;52.054;8.524;2022-12-07T03:48:01;3.40;97.00
10030;DHT22;5055;52.054;8.524;2022-12-07T03:50:41;3.50;97.00
10030;DHT22;5055;52.054;8.524;2022-12-07T03:53:14;3.40;97.00
10030;DHT22;5055;52.054;8.524;2022-12-07T03:55:45;3.40;97.00
10030;DHT22;5055;52.054;8.524;2022-12-07T03:58:17;3.50;97.00
10030;DHT22;5055;52.054;8.524;2022-12-07T04:00:46;3.40;97.00
10030;DHT22;5055;52.054;8.524;2022-12-07T04:03:17;3.40;97.00
10030;DHT22;5055;52.054;8.524;2022-12-07T04:05:46;3.40;97.00
10030;DHT22;5055;52.054;8.524;2022-12-07T04:08:15;3.50;97.00
10030;DHT22;5055;52.054;8.524;2022-12-07T04:10:44;3.50;97.00
10030;DHT22;5055;52.054;8.524;2022-12-07T04:13:12;3.50;97.00
10030;DHT22;5055;52.054;8.524;2022-12-07T04:15:41;3.50;97.00
10030;DHT22;5055;52.054;8.524;2022-12-07T04:18:09;3.60;97.00
10030;DHT22;5055;52.054;8.524;2022-12-07T04:20:39;3.60;97.00
10030;DHT22;5055;52.054;8.524;2022-12-07T04:23:09;3.50;97.00
10030;DHT22;5055;52.054;8.524;2022-12-07T04:25:37;3.50;97.00
10030;DHT22;5055;52.054;8.524;2022-12-07T04:28:06;3.50;97.00
10030;DHT22;5055;52.054;8.524;2022-12-07T04:30:34;3.50;97.00
10030;DHT22;5055;52.054;8.524;2022-12-07T04:33:03;3.50;97.00
10030;DHT22;5055;52.054;8.524;2022-12-07T04:35:31;3.50;97.00
10030;DHT22;5055;52.054;8.524;2022-12-07T04:38:01;3.50;97.00
10030;DHT22;5055;52.054;8.524;2022-12-07T04:40:30;3.50;97.00
10030;DHT22;5055;52.054;8.524;2022-12-07T04:42:59;3.40;97.00
10030;DHT22;5055;52.054;8.524;2022-12-07T04:45:27;3.40;97.00
10030;DHT22;5055;52.054;8.524;2022-12-07T04:47:56;3.40;97.00
10030;DHT22;5055;52.054;8.524;2022-12-07T04:50:24;3.30;97.00
10030;DHT22;5055;52.054;8.524;2022-12-07T04:52:53;3.30;97.00
10030;DHT22;5055;52.054;8.524;2022-12-07T04:55:23;3.30;97.00
10030;DHT22;5055;52.054;8.524;2022-12-07T04:57:51;3.30;97.00
10030;DHT22;5055;52.054;8.524;2022-12-07T05:00:20;3.30;97.00
10030;DHT22;5055;52.054;8.524;2022-12-07T05:02:49;3.30;97.00
10030;DHT22;5055;52.054;8.524;2022-12-07T05:05:17;3.30;97.00
10030;DHT22;5055;52.054;8.524;2022-12-07T05:07:46;3.30;97.00
10030;DHT22;5055;52.054;8.524;2022-12-07T05:10:15;3.30;97.00
10030;DHT22;5055;52.054;8.524;2022-12-07T05:12:45;3.30;97.00
10030;DHT22;5055;52.054;8.524;2022-12-07T05:15:13;3.30;97.00
10030;DHT22;5055;52.054;8.524;2022-12-07T05:17:42;3.40;97.00
10030;DHT22;5055;52.054;8.524;2022-12-07T05:20:11;3.30;97.00
10030;DHT22;5055;52.054;8.524;2022-12-07T05:22:40;3.30;97.00
10030;DHT22;5055;52.054;8.524;2022-12-07T05:25:09;3.40;97.00
10030;DHT22;5055;52.054;8.524;2022-12-07T05:27:37;3.40;97.00
10030;DHT22;5055;52.054;8.524;2022-12-07T05:30:08;3.40;97.00
10030;DHT22;5055;52.054;8.524;2022-12-07T05:32:37;3.40;97.00
10030;DHT22;5055;52.054;8.524;2022-12-07T05:35:06;3.40;97.00
10030;DHT22;5055;52.054;8.524;2022-12-07T05:37:35;3.40;97.00
10030;DHT22;5055;52.054;8.524;2022-12-07T05:40:04;3.40;97.00
10030;DHT22;5055;52.054;8.524;2022-12-07T05:42:33;3.40;97.00
10030;DHT22;5055;52.054;8.524;2022-12-07T05:45:01;3.40;97.00
10030;DHT22;5055;52.054;8.524;2022-12-07T05:47:31;3.40;97.00
10030;DHT22;5055;52.054;8.524;2022-12-07T05:50:00;3.30;97.00
10030;DHT22;5055;52.054;8.524;2022-12-07T05:52:29;3.30;97.00
10030;DHT22;5055;52.054;8.524;2022-12-07T05:54:57;3.30;97.00
10030;DHT22;5055;52.054;8.524;2022-12-07T05:57:26;3.30;97.00
10030;DHT22;5055;52.054;8.524;2022-12-07T05:59:54;3.30;97.00
10030;DHT22;5055;52.054;8.524;2022-12-07T06:02:21;3.30;97.00
10030;DHT22;5055;52.054;8.524;2022-12-07T06:04:52;3.30;97.00
10030;DHT22;5055;52.054;8.524;2022-12-07T06:07:20;3.30;97.00
10030;DHT22;5055;52.054;8.524;2022-12-07T06:09:49;3.30;97.00
10030;DHT22;5055;52.054;8.524;2022-12-07T06:12:17;3.30;97.00
10030;DHT22;5055;52.054;8.524;2022-12-07T06:15:06;3.20;97.00
10030;DHT22;5055;52.054;8.524;2022-12-07T06:17:34;3.20;97.00
10030;DHT22;5055;52.054;8.524;2022-12-07T06:20:06;3.20;97.00
10030;DHT22;5055;52.054;8.524;2022-12-07T06:22:35;3.10;97.00
10030;DHT22;5055;52.054;8.524;2022-12-07T06:25:04;3.10;97.00
10030;DHT22;5055;52.054;8.524;2022-12-07T06:27:34;3.10;97.00
10030;DHT22;5055;52.054;8.524;2022-12-07T06:30:04;3.00;97.00
10030;DHT22;5055;52.054;8.524;2022-12-07T06:32:36;3.00;97.00
10030;DHT22;5055;52.054;8.524;2022-12-07T06:35:07;2.90;97.00
10030;DHT22;5055;52.054;8.524;2022-12-07T06:37:36;2.90;97.00
10030;DHT22;5055;52.054;8.524;2022-12-07T06:40:06;2.90;97.00
10030;DHT22;5055;52.054;8.524;2022-12-07T06:42:34;2.90;97.00
10030;DHT22;5055;52.054;8.524;2022-12-07T06:45:03;2.90;97.00
10030;DHT22;5055;52.054;8.524;2022-12-07T06:47:32;2.80;97.00
10030;DHT22;5055;52.054;8.524;2022-12-07T06:50:13;2.80;97.00
10030;DHT22;5055;52.054;8.524;2022-12-07T06:52:41;2.80;97.00
10030;DHT22;5055;52.054;8.524;2022-12-07T06:55:10;2.80;97.00
10030;DHT22;5055;52.054;8.524;2022-12-07T06:57:38;2.70;97.00
10030;DHT22;5055;52.054;8.524;2022-12-07T07:00:08;2.70;97.00
10030;DHT22;5055;52.054;8.524;2022-12-07T07:02:37;2.60;97.00
10030;DHT22;5055;52.054;8.524;2022-12-07T07:05:06;2.60;97.00
10030;DHT22;5055;52.054;8.524;2022-12-07T07:07:36;2.60;97.00
10030;DHT22;5055;52.054;8.524;2022-12-07T07:10:24;2.60;97.00
10030;DHT22;5055;52.054;8.524;2022-12-07T07:12:53;2.60;97.00
10030;DHT22;5055;52.054;8.524;2022-12-07T07:15:23;2.60;97.00
10030;DHT22;5055;52.054;8.524;2022-12-07T07:17:52;2.50;97.00
10030;DHT22;5055;52.054;8.524;2022-12-07T07:20:20;2.50;97.00
10030;DHT22;5055;52.054;8.524;2022-12-07T07:22:50;2.50;97.00
10030;DHT22;5055;52.054;8.524;2022-12-07T07:25:22;2.50;97.00
10030;DHT22;5055;52.054;8.524;2022-12-07T07:27:50;2.50;97.00
10030;DHT22;5055;52.054;8.524;2022-12-07T07:30:19;2.50;97.00
10030;DHT22;5055;52.054;8.524;2022-12-07T07:32:48;2.40;97.00
10030;DHT22;5055;52.054;8.524;2022-12-07T07:35:17;2.40;97.00
10030;DHT22;5055;52.054;8.524;2022-12-07T07:37:46;2.40;97.00
10030;DHT22;5055;52.054;8.524;2022-12-07T07:40:16;2.40;97.00
10030;DHT22;5055;52.054;8.524;2022-12-07T07:42:47;2.40;97.00
10030;DHT22;5055;52.054;8.524;2022-12-07T07:45:16;2.40;97.00
10030;DHT22;5055;52.054;8.524;2022-12-07T07:47:45;2.40;97.00
10030;DHT22;5055;52.054;8.524;2022-12-07T07:50:14;2.40;97.00
10030;DHT22;5055;52.054;8.524;2022-12-07T07:52:43;2.40;97.00
10030;DHT22;5055;52.054;8.524;2022-12-07T07:55:12;2.40;97.00
10030;DHT22;5055;52.054;8.524;2022-12-07T07:57:42;2.50;97.00
10030;DHT22;5055;52.054;8.524;2022-12-07T08:00:17;2.40;97.00
10030;DHT22;5055;52.054;8.524;2022-12-07T08:02:46;2.50;97.00
10030;DHT22;5055;52.054;8.524;2022-12-07T08:05:15;2.50;97.00
10030;DHT22;5055;52.054;8.524;2022-12-07T08:07:44;2.60;97.00
10030;DHT22;5055;52.054;8.524;2022-12-07T08:10:13;2.70;97.00
10030;DHT22;5055;52.054;8.524;2022-12-07T08:12:43;2.80;97.00
10030;DHT22;5055;52.054;8.524;2022-12-07T08:15:30;3.00;97.00
10030;DHT22;5055;52.054;8.524;2022-12-07T08:17:59;3.10;97.00
10030;DHT22;5055;52.054;8.524;2022-12-07T08:20:30;3.10;97.00
10030;DHT22;5055;52.054;8.524;2022-12-07T08:22:59;3.10;97.00
10030;DHT22;5055;52.054;8.524;2022-12-07T08:25:27;3.20;97.00
10030;DHT22;5055;52.054;8.524;2022-12-07T08:27:58;3.30;97.00
10030;DHT22;5055;52.054;8.524;2022-12-07T08:30:27;3.30;97.00
10030;DHT22;5055;52.054;8.524;2022-12-07T08:32:56;3.30;97.00
10030;DHT22;5055;52.054;8.524;2022-12-07T08:35:26;3.30;97.00
10030;DHT22;5055;52.054;8.524;2022-12-07T08:37:54;3.40;97.00
10030;DHT22;5055;52.054;8.524;2022-12-07T08:40:25;3.40;97.00
10030;DHT22;5055;52.054;8.524;2022-12-07T08:42:54;3.40;97.00
10030;DHT22;5055;52.054;8.524;2022-12-07T08:45:24;3.40;97.00
10030;DHT22;5055;52.054;8.524;2022-12-07T08:47:58;3.60;97.00
10030;DHT22;5055;52.054;8.524;2022-12-07T08:50:29;3.80;97.00
10030;DHT22;5055;52.054;8.524;2022-12-07T08:53:00;3.90;97.00
10030;DHT22;5055;52.054;8.524;2022-12-07T08:55:29;3.90;97.00
10030;DHT22;5055;52.054;8.524;2022-12-07T08:57:57;3.80;97.00
10030;DHT22;5055;52.054;8.524;2022-12-07T09:00:29;3.80;97.00
10030;DHT22;5055;52.054;8.524;2022-12-07T09:02:57;3.70;97.00
10030;DHT22;5055;52.054;8.524;2022-12-07T09:05:26;3.60;97.00
10030;DHT22;5055;52.054;8.524;2022-12-07T09:07:57;3.60;97.00
10030;DHT22;5055;52.054;8.524;2022-12-07T09:10:28;3.60;97.00
10030;DHT22;5055;52.054;8.524;2022-12-07T09:12:57;3.80;97.00
10030;DHT22;5055;52.054;8.524;2022-12-07T09:15:32;3.90;97.00
10030;DHT22;5055;52.054;8.524;2022-12-07T09:18:03;4.10;97.00
10030;DHT22;5055;52.054;8.524;2022-12-07T09:20:32;4.40;97.00
10030;DHT22;5055;52.054;8.524;2022-12-07T09:23:01;4.60;97.00
10030;DHT22;5055;52.054;8.524;2022-12-07T09:25:29;4.60;97.00
10030;DHT22;5055;52.054;8.524;2022-12-07T09:27:58;4.60;97.00
10030;DHT22;5055;52.054;8.524;2022-12-07T09:30:28;4.60;97.00
10030;DHT22;5055;52.054;8.524;2022-12-07T09:32:58;4.60;97.00
10030;DHT22;5055;52.054;8.524;2022-12-07T09:35:26;4.60;97.00
10030;DHT22;5055;52.054;8.524;2022-12-07T09:37:55;4.80;97.00
10030;DHT22;5055;52.054;8.524;2022-12-07T09:40:23;4.70;97.00
10030;DHT22;5055;52.054;8.524;2022-12-07T09:42:53;4.70;97.00
10030;DHT22;5055;52.054;8.524;2022-12-07T09:45:25;4.60;97.00
10030;DHT22;5055;52.054;8.524;2022-12-07T09:47:57;4.50;97.00
10030;DHT22;5055;52.054;8.524;2022-12-07T09:50:28;4.40;97.00
10030;DHT22;5055;52.054;8.524;2022-12-07T09:53:07;4.30;97.00
10030;DHT22;5055;52.054;8.524;2022-12-07T09:55:36;4.30;97.00
10030;DHT22;5055;52.054;8.524;2022-12-07T09:58:08;4.20;97.00
10030;DHT22;5055;52.054;8.524;2022-12-07T10:00:39;4.20;97.00
10030;DHT22;5055;52.054;8.524;2022-12-07T10:03:12;4.20;97.00
10030;DHT22;5055;52.054;8.524;2022-12-07T10:05:43;4.20;97.00
10030;DHT22;5055;52.054;8.524;2022-12-07T10:08:13;4.20;97.00
10030;DHT22;5055;52.054;8.524;2022-12-07T10:10:44;4.20;97.00
10030;DHT22;5055;52.054;8.524;2022-12-07T10:13:14;4.20;97.00
10030;DHT22;5055;52.054;8.524;2022-12-07T10:15:49;4.30;97.00
10030;DHT22;5055;52.054;8.524;2022-12-07T10:18:37;4.30;97.00
10030;DHT22;5055;52.054;8.524;2022-12-07T10:21:13;4.30;97.00
10030;DHT22;5055;52.054;8.524;2022-12-07T10:23:59;4.40;97.00
10030;DHT22;5055;52.054;8.524;2022-12-07T10:26:32;4.50;97.00
10030;DHT22;5055;52.054;8.524;2022-12-07T10:29:02;4.50;97.00
10030;DHT22;5055;52.054;8.524;2022-12-07T10:31:32;4.60;97.00
10030;DHT22;5055;52.054;8.524;2022-12-07T10:34:02;4.60;97.00
10030;DHT22;5055;52.054;8.524;2022-12-07T10:36:35;4.60;97.00
10030;DHT22;5055;52.054;8.524;2022-12-07T10:39:12;4.60;97.00
10030;DHT22;5055;52.054;8.524;2022-12-07T10:41:53;4.60;97.00
10030;DHT22;5055;52.054;8.524;2022-12-07T10:44:24;4.60;97.00
10030;DHT22;5055;52.054;8.524;2022-12-07T10:53:18;4.70;97.00
10030;DHT22;5055;52.054;8.524;2022-12-07T10:55:58;4.80;97.00
10030;DHT22;5055;52.054;8.524;2022-12-07T10:58:51;4.90;97.00
10030;DHT22;5055;52.054;8.524;2022-12-07T11:01:24;4.90;97.00
10030;DHT22;5055;52.054;8.524;2022-12-07T11:04:17;4.90;97.00
10030;DHT22;5055;52.054;8.524;2022-12-07T11:06:51;4.90;97.00
10030;DHT22;5055;52.054;8.524;2022-12-07T11:12:58;5.10;97.00
10030;DHT22;5055;52.054;8.524;2022-12-07T11:15:37;5.10;97.00
10030;DHT22;5055;52.054;8.524;2022-12-07T11:18:13;5.10;97.00
10030;DHT22;5055;52.054;8.524;2022-12-07T11:20:47;5.10;97.00
10030;DHT22;5055;52.054;8.524;2022-12-07T11:23:24;5.20;97.00
10030;DHT22;5055;52.054;8.524;2022-12-07T11:26:02;5.10;97.00
10030;DHT22;5055;52.054;8.524;2022-12-07T11:28:44;5.20;97.00
10030;DHT22;5055;52.054;8.524;2022-12-07T11:31:24;5.20;97.00
10030;DHT22;5055;52.054;8.524;2022-12-07T11:34:00;5.20;97.00
10030;DHT22;5055;52.054;8.524;2022-12-07T11:36:37;5.20;97.00
10030;DHT22;5055;52.054;8.524;2022-12-07T11:39:18;5.20;97.00
10030;DHT22;5055;52.054;8.524;2022-12-07T11:41:55;5.40;97.00
10030;DHT22;5055;52.054;8.524;2022-12-07T11:44:30;5.50;97.00
10030;DHT22;5055;52.054;8.524;2022-12-07T11:47:04;5.60;97.00
10030;DHT22;5055;52.054;8.524;2022-12-07T11:49:42;5.60;97.00
10030;DHT22;5055;52.054;8.524;2022-12-07T11:52:19;5.70;97.00
10030;DHT22;5055;52.054;8.524;2022-12-07T11:54:51;5.70;97.00
10030;DHT22;5055;52.054;8.524;2022-12-07T11:57:28;5.60;97.00
10030;DHT22;5055;52.054;8.524;2022-12-07T12:00:03;5.50;97.00
10030;DHT22;5055;52.054;8.524;2022-12-07T12:02:37;5.60;97.00
10030;DHT22;5055;52.054;8.524;2022-12-07T12:05:15;5.60;97.00
10030;DHT22;5055;52.054;8.524;2022-12-07T12:07:44;5.80;97.00
10030;DHT22;5055;52.054;8.524;2022-12-07T12:10:40;5.80;97.00
10030;DHT22;5055;52.054;8.524;2022-12-07T12:13:41;5.80;97.00
10030;DHT22;5055;52.054;8.524;2022-12-07T12:17:01;5.90;97.00
10030;DHT22;5055;52.054;8.524;2022-12-07T12:19:37;6.00;97.00
10030;DHT22;5055;52.054;8.524;2022-12-07T12:22:13;6.10;97.00
10030;DHT22;5055;52.054;8.524;2022-12-07T12:24:43;6.20;97.00
10030;DHT22;5055;52.054;8.524;2022-12-07T12:27:22;6.30;97.00
10030;DHT22;5055;52.054;8.524;2022-12-07T12:29:55;6.30;97.00
10030;DHT22;5055;52.054;8.524;2022-12-07T12:32:34;6.40;97.00
10030;DHT22;5055;52.054;8.524;2022-12-07T12:35:30;6.50;97.00
10030;DHT22;5055;52.054;8.524;2022-12-07T12:38:21;6.40;97.00
10030;DHT22;5055;52.054;8.524;2022-12-07T12:40:53;6.10;97.00
10030;DHT22;5055;52.054;8.524;2022-12-07T12:43:45;6.00;97.00
10030;DHT22;5055;52.054;8.524;2022-12-07T12:46:51;5.90;97.00
10030;DHT22;5055;52.054;8.524;2022-12-07T12:55:57;5.70;97.00
10030;DHT22;5055;52.054;8.524;2022-12-07T12:58:37;5.60;97.00
10030;DHT22;5055;52.054;8.524;2022-12-07T13:01:38;5.70;97.00
10030;DHT22;5055;52.054;8.524;2022-12-07T13:04:29;5.70;97.00
10030;DHT22;5055;52.054;8.524;2022-12-07T13:06:59;5.80;97.00
10030;DHT22;5055;52.054;8.524;2022-12-07T13:09:30;5.70;97.00
10030;DHT22;5055;52.054;8.524;2022-12-07T13:12:04;5.70;97.00
10030;DHT22;5055;52.054;8.524;2022-12-07T13:17:59;5.70;97.00
10030;DHT22;5055;52.054;8.524;2022-12-07T13:20:51;5.70;97.00
10030;DHT22;5055;52.054;8.524;2022-12-07T13:23:24;5.60;97.00
10030;DHT22;5055;52.054;8.524;2022-12-07T13:26:08;5.60;97.00
10030;DHT22;5055;52.054;8.524;2022-12-07T13:28:45;5.50;97.00
10030;DHT22;5055;52.054;8.524;2022-12-07T13:31:36;5.50;97.00
10030;DHT22;5055;52.054;8.524;2022-12-07T13:34:29;5.50;97.00
10030;DHT22;5055;52.054;8.524;2022-12-07T13:37:00;5.40;97.00
10030;DHT22;5055;52.054;8.524;2022-12-07T13:39:32;5.40;97.00
10030;DHT22;5055;52.054;8.524;2022-12-07T13:42:11;5.30;97.00
10030;DHT22;5055;52.054;8.524;2022-12-07T13:44:43;5.30;97.00
10030;DHT22;5055;52.054;8.524;2022-12-07T13:47:15;5.30;97.00
10030;DHT22;5055;52.054;8.524;2022-12-07T13:49:48;5.30;97.00
10030;DHT22;5055;52.054;8.524;2022-12-07T13:52:23;5.30;97.00
10030;DHT22;5055;52.054;8.524;2022-12-07T13:54:56;5.30;97.00
10030;DHT22;5055;52.054;8.524;2022-12-07T13:57:27;5.30;97.00
10030;DHT22;5055;52.054;8.524;2022-12-07T13:59:57;5.30;97.00
10030;DHT22;5055;52.054;8.524;2022-12-07T14:02:30;5.40;97.00
10030;DHT22;5055;52.054;8.524;2022-12-07T14:05:08;5.40;97.00
10030;DHT22;5055;52.054;8.524;2022-12-07T14:07:49;5.40;97.00
10030;DHT22;5055;52.054;8.524;2022-12-07T14:10:25;5.30;97.00
10030;DHT22;5055;52.054;8.524;2022-12-07T14:12:55;5.30;97.00
10030;DHT22;5055;52.054;8.524;2022-12-07T14:15:27;5.30;97.00
10030;DHT22;5055;52.054;8.524;2022-12-07T14:17:57;5.30;97.00
10030;DHT22;5055;52.054;8.524;2022-12-07T14:20:31;5.30;97.00
10030;DHT22;5055;52.054;8.524;2022-12-07T14:23:02;5.30;97.00
10030;DHT22;5055;52.054;8.524;2022-12-07T14:25:45;5.30;97.00
10030;DHT22;5055;52.054;8.524;2022-12-07T14:28:27;5.20;97.00
10030;DHT22;5055;52.054;8.524;2022-12-07T14:30:56;5.20;97.00
10030;DHT22;5055;52.054;8.524;2022-12-07T14:33:25;5.20;97.00
10030;DHT22;5055;52.054;8.524;2022-12-07T14:35:54;5.10;97.00
10030;DHT22;5055;52.054;8.524;2022-12-07T14:38:26;5.00;97.00
10030;DHT22;5055;52.054;8.524;2022-12-07T14:40:55;5.00;97.00
10030;DHT22;5055;52.054;8.524;2022-12-07T14:43:45;4.90;97.00
10030;DHT22;5055;52.054;8.524;2022-12-07T14:46:33;4.90;97.00
10030;DHT22;5055;52.054;8.524;2022-12-07T14:49:01;4.80;97.00
10030;DHT22;5055;52.054;8.524;2022-12-07T14:51:50;4.80;97.00
10030;DHT22;5055;52.054;8.524;2022-12-07T14:54:41;4.80;97.00
10030;DHT22;5055;52.054;8.524;2022-12-07T14:57:10;4.80;97.00
10030;DHT22;5055;52.054;8.524;2022-12-07T14:59:39;4.70;97.00
10030;DHT22;5055;52.054;8.524;2022-12-07T15:02:12;4.70;97.00
10030;DHT22;5055;52.054;8.524;2022-12-07T15:04:41;4.70;97.00
10030;DHT22;5055;52.054;8.524;2022-12-07T15:07:16;4.70;97.00
10030;DHT22;5055;52.054;8.524;2022-12-07T15:09:48;4.70;97.00
10030;DHT22;5055;52.054;8.524;2022-12-07T15:12:16;4.70;97.00
10030;DHT22;5055;52.054;8.524;2022-12-07T15:14:45;4.70;97.00
10030;DHT22;5055;52.054;8.524;2022-12-07T15:17:13;4.70;97.00
10030;DHT22;5055;52.054;8.524;2022-12-07T15:19:55;4.70;97.00
10030;DHT22;5055;52.054;8.524;2022-12-07T15:22:24;4.60;97.00
10030;DHT22;5055;52.054;8.524;2022-12-07T15:24:53;4.60;97.00
10030;DHT22;5055;52.054;8.524;2022-12-07T15:27:22;4.60;97.00
10030;DHT22;5055;52.054;8.524;2022-12-07T15:29:50;4.60;97.00
10030;DHT22;5055;52.054;8.524;2022-12-07T15:32:20;4.60;97.00
10030;DHT22;5055;52.054;8.524;2022-12-07T15:34:49;4.70;97.00
10030;DHT22;5055;52.054;8.524;2022-12-07T15:37:18;4.70;97.00
10030;DHT22;5055;52.054;8.524;2022-12-07T15:39:46;4.70;97.00
10030;DHT22;5055;52.054;8.524;2022-12-07T15:42:16;4.70;97.00
10030;DHT22;5055;52.054;8.524;2022-12-07T15:44:48;4.70;97.00
10030;DHT22;5055;52.054;8.524;2022-12-07T15:47:31;4.60;97.00
10030;DHT22;5055;52.054;8.524;2022-12-07T15:50:20;4.60;97.00
10030;DHT22;5055;52.054;8.524;2022-12-07T15:52:49;4.60;97.00
10030;DHT22;5055;52.054;8.524;2022-12-07T15:55:18;4.60;97.00
10030;DHT22;5055;52.054;8.524;2022-12-07T15:57:48;4.60;97.00
10030;DHT22;5055;52.054;8.524;2022-12-07T16:00:17;4.60;97.00
10030;DHT22;5055;52.054;8.524;2022-12-07T16:02:46;4.60;97.00
10030;DHT22;5055;52.054;8.524;2022-12-07T16:05:15;4.20;97.00
10030;DHT22;5055;52.054;8.524;2022-12-07T16:07:43;3.80;97.00
10030;DHT22;5055;52.054;8.524;2022-12-07T16:10:14;3.50;97.00
10030;DHT22;5055;52.054;8.524;2022-12-07T16:12:42;3.30;97.00
10030;DHT22;5055;52.054;8.524;2022-12-07T16:15:14;3.10;97.00
10030;DHT22;5055;52.054;8.524;2022-12-07T16:17:51;2.90;97.00
10030;DHT22;5055;52.054;8.524;2022-12-07T16:20:19;2.70;97.00
10030;DHT22;5055;52.054;8.524;2022-12-07T16:22:51;2.60;97.00
10030;DHT22;5055;52.054;8.524;2022-12-07T16:25:20;2.50;97.00
10030;DHT22;5055;52.054;8.524;2022-12-07T16:27:49;2.40;97.00
10030;DHT22;5055;52.054;8.524;2022-12-07T16:30:19;2.30;97.00
10030;DHT22;5055;52.054;8.524;2022-12-07T16:32:47;2.30;97.00
10030;DHT22;5055;52.054;8.524;2022-12-07T16:35:16;2.20;97.00
10030;DHT22;5055;52.054;8.524;2022-12-07T16:37:46;2.10;97.00
10030;DHT22;5055;52.054;8.524;2022-12-07T16:40:15;2.10;97.00
10030;DHT22;5055;52.054;8.524;2022-12-07T16:42:44;2.10;97.00
10030;DHT22;5055;52.054;8.524;2022-12-07T16:45:13;2.00;97.00
10030;DHT22;5055;52.054;8.524;2022-12-07T16:47:48;2.00;97.00
10030;DHT22;5055;52.054;8.524;2022-12-07T16:50:16;2.00;97.00
10030;DHT22;5055;52.054;8.524;2022-12-07T16:52:48;2.00;97.00
10030;DHT22;5055;52.054;8.524;2022-12-07T16:55:17;2.00;97.00
10030;DHT22;5055;52.054;8.524;2022-12-07T16:57:45;2.00;97.00